CheckWX is a tool to help pilots better visualize weather data.  It is not intended as a substitute for an official pre-flight weather briefing.

22:08:16 UTC

KHYA TAF
Barnstable Municipal-Boardman / Polando Field Airport
Hyannis, Massachusetts, USA
KHYA 232320Z 2400/2424 05009KT P6SM -RA BKN060 OVC110 FM240200 07014G23KT P6SM BKN090 FM242200 07009KT P6SM BKN045

May-24@
00:00 UTC

May-24 @ 00:00 UTC

May-24@
02:00 UTC

May-24 @ 02:00 UTC

TAF KHYA 232320Z 2400/2424 05009KT P6SM -RA BKN060 OVC110

Expired

Wind
  • 050° at 9 KTS
Conditions
Light Rain
Cloud Levels
  • Broken at 6,000' AGL
  • Overcast at 11,000' AGL

May-24@
02:00 UTC

May-24 @ 02:00 UTC

May-24@
22:00 UTC

May-24 @ 22:00 UTC

FM240200 07014G23KT P6SM BKN090

Expired

Wind
  • 070° at 14 KTS
  • {Gusting to 23 KTS
Cloud Levels
  • Broken at 9,000' AGL

May-24@
22:00 UTC

May-24 @ 22:00 UTC

May-25@
00:00 UTC

May-25 @ 00:00 UTC

FM242200 07009KT P6SM BKN045

From

From Standard forecast or significant change

Wind
  • 070° at 9 KTS
Cloud Levels
  • Broken at 4,500' AGL